Farmersville, Illinois
Current Conditions -  °F | °C
As of 2:15 AM on Friday 28 Nov 2014 (Local Time) from KTAZ Reporting Station
Broken Clouds Broken Clouds  
Wind Chill:   Ceiling: 6000
Heat Index: 18°   Visibility: 10mi
Dew Point:   Wind: 6mph
Humidity: 68%   Direction: 170°S
Pressure: 30.4"   Gusts: NA
Location:  39.44°N, 89.65°W
Report Text: KTAZ 280815Z AUTO 17005KT 10SM BKN060 M08/M13 A3040 RMK AO2
Loading
Personal Weather Stations






























Interactive Weather Map New forecast layout! Learn more

10-Day Weather Forecast

Advertisements
Track Severe Weather on mobile